sensor_id;sensor_type;location;lat;lon;timestamp;P1;durP1;ratioP1;P2;durP2;ratioP2
19257;SDS011;9763;48.780;9.212;2024-01-15T00:00:02;11.90;;;6.10;;
19257;SDS011;9763;48.780;9.212;2024-01-15T00:03:31;12.30;;;6.97;;
19257;SDS011;9763;48.780;9.212;2024-01-15T00:06:56;12.60;;;7.20;;
19257;SDS011;9763;48.780;9.212;2024-01-15T00:10:20;9.67;;;6.60;;
19257;SDS011;9763;48.780;9.212;2024-01-15T00:13:43;11.63;;;5.83;;
19257;SDS011;9763;48.780;9.212;2024-01-15T00:17:07;11.07;;;7.30;;
19257;SDS011;9763;48.780;9.212;2024-01-15T00:20:31;9.50;;;5.70;;
19257;SDS011;9763;48.780;9.212;2024-01-15T00:23:56;9.77;;;6.57;;
19257;SDS011;9763;48.780;9.212;2024-01-15T00:27:19;10.03;;;6.50;;
19257;SDS011;9763;48.780;9.212;2024-01-15T00:30:43;9.53;;;6.60;;
19257;SDS011;9763;48.780;9.212;2024-01-15T00:34:07;8.70;;;5.93;;
19257;SDS011;9763;48.780;9.212;2024-01-15T00:37:32;11.63;;;7.20;;
19257;SDS011;9763;48.780;9.212;2024-01-15T00:40:56;11.87;;;6.37;;
19257;SDS011;9763;48.780;9.212;2024-01-15T00:44:20;13.17;;;7.17;;
19257;SDS011;9763;48.780;9.212;2024-01-15T00:47:43;11.43;;;6.70;;
19257;SDS011;9763;48.780;9.212;2024-01-15T00:51:07;9.97;;;6.20;;
19257;SDS011;9763;48.780;9.212;2024-01-15T00:54:30;7.50;;;4.67;;
19257;SDS011;9763;48.780;9.212;2024-01-15T00:57:55;12.60;;;6.50;;
19257;SDS011;9763;48.780;9.212;2024-01-15T01:01:19;10.77;;;6.33;;
19257;SDS011;9763;48.780;9.212;2024-01-15T01:04:42;11.13;;;6.83;;
19257;SDS011;9763;48.780;9.212;2024-01-15T01:08:06;11.17;;;7.10;;
19257;SDS011;9763;48.780;9.212;2024-01-15T01:11:30;12.40;;;6.40;;
19257;SDS011;9763;48.780;9.212;2024-01-15T01:14:55;12.80;;;6.57;;
19257;SDS011;9763;48.780;9.212;2024-01-15T01:18:18;11.13;;;5.57;;
19257;SDS011;9763;48.780;9.212;2024-01-15T01:21:42;10.53;;;5.97;;
19257;SDS011;9763;48.780;9.212;2024-01-15T01:25:06;13.03;;;6.37;;
19257;SDS011;9763;48.780;9.212;2024-01-15T01:28:30;9.30;;;5.60;;
19257;SDS011;9763;48.780;9.212;2024-01-15T01:31:55;10.90;;;6.27;;
19257;SDS011;9763;48.780;9.212;2024-01-15T01:35:19;11.83;;;7.23;;
19257;SDS011;9763;48.780;9.212;2024-01-15T01:38:42;13.40;;;6.00;;
19257;SDS011;9763;48.780;9.212;2024-01-15T01:42:06;12.10;;;5.90;;
19257;SDS011;9763;48.780;9.212;2024-01-15T01:45:30;9.53;;;5.90;;
19257;SDS011;9763;48.780;9.212;2024-01-15T01:48:55;8.63;;;6.17;;
19257;SDS011;9763;48.780;9.212;2024-01-15T01:52:25;16.17;;;7.40;;
19257;SDS011;9763;48.780;9.212;2024-01-15T01:55:49;10.43;;;6.17;;
19257;SDS011;9763;48.780;9.212;2024-01-15T01:59:13;11.40;;;5.90;;
19257;SDS011;9763;48.780;9.212;2024-01-15T02:02:37;11.40;;;6.37;;
19257;SDS011;9763;48.780;9.212;2024-01-15T02:06:02;11.17;;;6.63;;
19257;SDS011;9763;48.780;9.212;2024-01-15T02:09:27;12.97;;;6.90;;
19257;SDS011;9763;48.780;9.212;2024-01-15T02:12:50;12.30;;;6.70;;
19257;SDS011;9763;48.780;9.212;2024-01-15T02:16:14;15.83;;;7.70;;
19257;SDS011;9763;48.780;9.212;2024-01-15T02:19:37;14.93;;;6.57;;
19257;SDS011;9763;48.780;9.212;2024-01-15T02:23:10;12.27;;;7.07;;
19257;SDS011;9763;48.780;9.212;2024-01-15T02:26:35;12.53;;;6.53;;
19257;SDS011;9763;48.780;9.212;2024-01-15T02:30:00;11.63;;;7.00;;
19257;SDS011;9763;48.780;9.212;2024-01-15T02:33:24;12.33;;;6.60;;
19257;SDS011;9763;48.780;9.212;2024-01-15T02:36:48;11.20;;;6.70;;
19257;SDS011;9763;48.780;9.212;2024-01-15T02:40:13;10.27;;;6.27;;
19257;SDS011;9763;48.780;9.212;2024-01-15T02:43:37;10.03;;;6.10;;
19257;SDS011;9763;48.780;9.212;2024-01-15T02:47:00;8.93;;;5.40;;
19257;SDS011;9763;48.780;9.212;2024-01-15T02:50:24;13.13;;;6.43;;
19257;SDS011;9763;48.780;9.212;2024-01-15T02:53:48;9.00;;;5.60;;
19257;SDS011;9763;48.780;9.212;2024-01-15T02:57:14;9.57;;;5.37;;
19257;SDS011;9763;48.780;9.212;2024-01-15T03:00:38;8.93;;;5.17;;
19257;SDS011;9763;48.780;9.212;2024-01-15T03:04:01;9.37;;;5.87;;
19257;SDS011;9763;48.780;9.212;2024-01-15T03:07:27;8.23;;;5.80;;
19257;SDS011;9763;48.780;9.212;2024-01-15T03:10:51;9.07;;;5.30;;
19257;SDS011;9763;48.780;9.212;2024-01-15T03:14:16;9.53;;;5.47;;
19257;SDS011;9763;48.780;9.212;2024-01-15T03:17:41;8.27;;;5.47;;
19257;SDS011;9763;48.780;9.212;2024-01-15T03:21:05;10.47;;;5.27;;
19257;SDS011;9763;48.780;9.212;2024-01-15T03:24:29;9.97;;;5.57;;
19257;SDS011;9763;48.780;9.212;2024-01-15T03:27:54;10.07;;;5.90;;
19257;SDS011;9763;48.780;9.212;2024-01-15T03:31:19;11.00;;;5.73;;
19257;SDS011;9763;48.780;9.212;2024-01-15T03:34:43;11.13;;;5.90;;
19257;SDS011;9763;48.780;9.212;2024-01-15T03:38:07;9.70;;;6.63;;
19257;SDS011;9763;48.780;9.212;2024-01-15T03:41:31;9.97;;;5.40;;
19257;SDS011;9763;48.780;9.212;2024-01-15T03:44:54;9.30;;;6.40;;
19257;SDS011;9763;48.780;9.212;2024-01-15T03:48:19;9.60;;;5.50;;
19257;SDS011;9763;48.780;9.212;2024-01-15T03:51:43;8.10;;;5.10;;
19257;SDS011;9763;48.780;9.212;2024-01-15T03:55:07;11.37;;;5.43;;
19257;SDS011;9763;48.780;9.212;2024-01-15T03:58:31;11.00;;;5.53;;
19257;SDS011;9763;48.780;9.212;2024-01-15T04:01:54;8.40;;;5.37;;
19257;SDS011;9763;48.780;9.212;2024-01-15T04:05:19;6.90;;;3.93;;
19257;SDS011;9763;48.780;9.212;2024-01-15T04:08:43;7.70;;;4.87;;
19257;SDS011;9763;48.780;9.212;2024-01-15T04:12:07;7.77;;;4.93;;
19257;SDS011;9763;48.780;9.212;2024-01-15T04:15:31;9.03;;;5.07;;
19257;SDS011;9763;48.780;9.212;2024-01-15T04:18:54;9.47;;;4.47;;
19257;SDS011;9763;48.780;9.212;2024-01-15T04:22:19;8.30;;;5.53;;
19257;SDS011;9763;48.780;9.212;2024-01-15T04:25:42;7.00;;;4.70;;
19257;SDS011;9763;48.780;9.212;2024-01-15T04:29:07;9.10;;;4.53;;
19257;SDS011;9763;48.780;9.212;2024-01-15T04:32:30;5.73;;;4.00;;
19257;SDS011;9763;48.780;9.212;2024-01-15T04:35:54;9.03;;;5.87;;
19257;SDS011;9763;48.780;9.212;2024-01-15T04:39:19;9.80;;;5.50;;
19257;SDS011;9763;48.780;9.212;2024-01-15T04:42:43;7.67;;;4.93;;
19257;SDS011;9763;48.780;9.212;2024-01-15T04:46:07;10.27;;;4.67;;
19257;SDS011;9763;48.780;9.212;2024-01-15T04:49:31;9.83;;;5.57;;
19257;SDS011;9763;48.780;9.212;2024-01-15T04:52:55;8.23;;;4.63;;
19257;SDS011;9763;48.780;9.212;2024-01-15T04:56:20;7.50;;;5.37;;
19257;SDS011;9763;48.780;9.212;2024-01-15T04:59:43;11.10;;;5.83;;
19257;SDS011;9763;48.780;9.212;2024-01-15T05:03:07;7.20;;;4.97;;
19257;SDS011;9763;48.780;9.212;2024-01-15T05:06:31;10.50;;;5.27;;
19257;SDS011;9763;48.780;9.212;2024-01-15T05:09:54;9.37;;;6.33;;
19257;SDS011;9763;48.780;9.212;2024-01-15T05:13:19;8.10;;;5.73;;
19257;SDS011;9763;48.780;9.212;2024-01-15T05:16:46;10.53;;;6.60;;
19257;SDS011;9763;48.780;9.212;2024-01-15T05:20:10;10.60;;;6.10;;
19257;SDS011;9763;48.780;9.212;2024-01-15T05:23:34;10.93;;;6.77;;
19257;SDS011;9763;48.780;9.212;2024-01-15T05:26:58;10.13;;;6.90;;
19257;SDS011;9763;48.780;9.212;2024-01-15T05:30:22;10.40;;;7.07;;
19257;SDS011;9763;48.780;9.212;2024-01-15T05:33:46;9.20;;;5.83;;
19257;SDS011;9763;48.780;9.212;2024-01-15T05:37:10;12.77;;;7.97;;
19257;SDS011;9763;48.780;9.212;2024-01-15T05:40:34;7.20;;;5.10;;
19257;SDS011;9763;48.780;9.212;2024-01-15T05:43:57;11.30;;;6.00;;
19257;SDS011;9763;48.780;9.212;2024-01-15T05:47:22;10.30;;;6.13;;
19257;SDS011;9763;48.780;9.212;2024-01-15T05:50:46;7.23;;;5.50;;
19257;SDS011;9763;48.780;9.212;2024-01-15T05:54:09;7.63;;;4.67;;
19257;SDS011;9763;48.780;9.212;2024-01-15T05:57:33;7.90;;;5.50;;
19257;SDS011;9763;48.780;9.212;2024-01-15T06:00:57;10.33;;;6.20;;
19257;SDS011;9763;48.780;9.212;2024-01-15T06:04:22;11.47;;;6.60;;
19257;SDS011;9763;48.780;9.212;2024-01-15T06:07:46;9.07;;;5.60;;
19257;SDS011;9763;48.780;9.212;2024-01-15T06:11:09;9.00;;;6.20;;
19257;SDS011;9763;48.780;9.212;2024-01-15T06:14:33;8.30;;;5.30;;
19257;SDS011;9763;48.780;9.212;2024-01-15T06:17:56;9.40;;;5.70;;
19257;SDS011;9763;48.780;9.212;2024-01-15T06:21:21;9.53;;;6.80;;
19257;SDS011;9763;48.780;9.212;2024-01-15T06:24:45;8.40;;;5.77;;
19257;SDS011;9763;48.780;9.212;2024-01-15T06:28:09;9.40;;;5.37;;
19257;SDS011;9763;48.780;9.212;2024-01-15T06:31:32;7.80;;;6.20;;
19257;SDS011;9763;48.780;9.212;2024-01-15T06:34:56;9.17;;;5.10;;
19257;SDS011;9763;48.780;9.212;2024-01-15T06:38:21;8.77;;;5.90;;
19257;SDS011;9763;48.780;9.212;2024-01-15T06:41:45;9.90;;;6.63;;
19257;SDS011;9763;48.780;9.212;2024-01-15T06:45:08;9.47;;;6.60;;
19257;SDS011;9763;48.780;9.212;2024-01-15T06:48:32;10.70;;;6.63;;
19257;SDS011;9763;48.780;9.212;2024-01-15T06:51:56;8.37;;;5.30;;
19257;SDS011;9763;48.780;9.212;2024-01-15T06:55:21;6.93;;;4.80;;
19257;SDS011;9763;48.780;9.212;2024-01-15T06:58:45;7.33;;;5.53;;
19257;SDS011;9763;48.780;9.212;2024-01-15T07:02:08;7.50;;;4.97;;
19257;SDS011;9763;48.780;9.212;2024-01-15T07:05:32;6.93;;;4.90;;
19257;SDS011;9763;48.780;9.212;2024-01-15T07:08:56;9.60;;;6.37;;
19257;SDS011;9763;48.780;9.212;2024-01-15T07:12:21;11.10;;;6.93;;
19257;SDS011;9763;48.780;9.212;2024-01-15T07:15:45;9.30;;;5.90;;
19257;SDS011;9763;48.780;9.212;2024-01-15T07:19:09;7.90;;;5.83;;
19257;SDS011;9763;48.780;9.212;2024-01-15T07:22:33;8.37;;;5.20;;
19257;SDS011;9763;48.780;9.212;2024-01-15T07:25:56;7.40;;;5.13;;
19257;SDS011;9763;48.780;9.212;2024-01-15T07:29:21;7.60;;;5.20;;
19257;SDS011;9763;48.780;9.212;2024-01-15T07:32:45;8.03;;;5.20;;
19257;SDS011;9763;48.780;9.212;2024-01-15T07:36:08;7.10;;;5.53;;
19257;SDS011;9763;48.780;9.212;2024-01-15T07:39:32;7.27;;;5.60;;
19257;SDS011;9763;48.780;9.212;2024-01-15T07:42:56;9.13;;;6.17;;
19257;SDS011;9763;48.780;9.212;2024-01-15T07:46:21;8.20;;;6.10;;
19257;SDS011;9763;48.780;9.212;2024-01-15T07:49:46;8.20;;;5.30;;
19257;SDS011;9763;48.780;9.212;2024-01-15T07:53:10;7.23;;;5.90;;
19257;SDS011;9763;48.780;9.212;2024-01-15T07:56:34;7.97;;;5.77;;
19257;SDS011;9763;48.780;9.212;2024-01-15T08:00:16;7.03;;;5.30;;
19257;SDS011;9763;48.780;9.212;2024-01-15T08:03:41;9.07;;;5.60;;
19257;SDS011;9763;48.780;9.212;2024-01-15T08:07:05;6.00;;;4.70;;
19257;SDS011;9763;48.780;9.212;2024-01-15T08:10:29;7.63;;;5.33;;
19257;SDS011;9763;48.780;9.212;2024-01-15T08:13:53;11.47;;;5.73;;
19257;SDS011;9763;48.780;9.212;2024-01-15T08:17:16;7.87;;;6.20;;
19257;SDS011;9763;48.780;9.212;2024-01-15T08:20:41;8.30;;;5.40;;
19257;SDS011;9763;48.780;9.212;2024-01-15T08:24:05;9.90;;;6.33;;
19257;SDS011;9763;48.780;9.212;2024-01-15T08:27:29;10.30;;;5.90;;
19257;SDS011;9763;48.780;9.212;2024-01-15T08:30:54;7.80;;;5.30;;
19257;SDS011;9763;48.780;9.212;2024-01-15T08:34:17;6.73;;;5.40;;
19257;SDS011;9763;48.780;9.212;2024-01-15T08:37:45;8.20;;;5.37;;
19257;SDS011;9763;48.780;9.212;2024-01-15T08:41:09;5.33;;;4.77;;
19257;SDS011;9763;48.780;9.212;2024-01-15T08:44:34;9.77;;;5.93;;
19257;SDS011;9763;48.780;9.212;2024-01-15T08:47:58;7.40;;;5.77;;
19257;SDS011;9763;48.780;9.212;2024-01-15T08:51:23;8.63;;;5.57;;
19257;SDS011;9763;48.780;9.212;2024-01-15T08:54:48;9.20;;;4.83;;
19257;SDS011;9763;48.780;9.212;2024-01-15T08:58:12;5.17;;;3.87;;
19257;SDS011;9763;48.780;9.212;2024-01-15T09:01:36;6.53;;;4.77;;
19257;SDS011;9763;48.780;9.212;2024-01-15T09:05:01;7.10;;;4.13;;
19257;SDS011;9763;48.780;9.212;2024-01-15T09:08:26;7.27;;;4.80;;
19257;SDS011;9763;48.780;9.212;2024-01-15T09:11:51;6.30;;;4.40;;
19257;SDS011;9763;48.780;9.212;2024-01-15T09:15:15;6.30;;;4.80;;
19257;SDS011;9763;48.780;9.212;2024-01-15T09:18:39;4.60;;;3.80;;
19257;SDS011;9763;48.780;9.212;2024-01-15T09:22:03;4.60;;;3.70;;
19257;SDS011;9763;48.780;9.212;2024-01-15T09:25:26;3.07;;;2.63;;
19257;SDS011;9763;48.780;9.212;2024-01-15T09:28:51;4.17;;;3.70;;
19257;SDS011;9763;48.780;9.212;2024-01-15T09:32:15;3.90;;;3.10;;
19257;SDS011;9763;48.780;9.212;2024-01-15T09:35:39;4.50;;;4.00;;
19257;SDS011;9763;48.780;9.212;2024-01-15T09:39:02;10.03;;;4.33;;
19257;SDS011;9763;48.780;9.212;2024-01-15T09:42:28;4.80;;;3.53;;
19257;SDS011;9763;48.780;9.212;2024-01-15T09:45:54;5.13;;;3.30;;
19257;SDS011;9763;48.780;9.212;2024-01-15T09:49:18;4.90;;;3.53;;
19257;SDS011;9763;48.780;9.212;2024-01-15T09:52:42;4.40;;;3.20;;
19257;SDS011;9763;48.780;9.212;2024-01-15T09:56:07;5.90;;;4.30;;
19257;SDS011;9763;48.780;9.212;2024-01-15T09:59:33;3.50;;;3.20;;
19257;SDS011;9763;48.780;9.212;2024-01-15T10:03:00;4.53;;;3.50;;
19257;SDS011;9763;48.780;9.212;2024-01-15T10:06:26;5.67;;;3.70;;
19257;SDS011;9763;48.780;9.212;2024-01-15T10:09:50;5.43;;;3.80;;
19257;SDS011;9763;48.780;9.212;2024-01-15T10:13:14;4.43;;;3.30;;
19257;SDS011;9763;48.780;9.212;2024-01-15T10:16:38;5.30;;;4.30;;
19257;SDS011;9763;48.780;9.212;2024-01-15T10:20:04;4.83;;;3.87;;
19257;SDS011;9763;48.780;9.212;2024-01-15T10:23:32;5.83;;;3.40;;
19257;SDS011;9763;48.780;9.212;2024-01-15T10:27:04;7.63;;;3.57;;
19257;SDS011;9763;48.780;9.212;2024-01-15T10:30:29;5.57;;;3.50;;
19257;SDS011;9763;48.780;9.212;2024-01-15T10:33:54;4.23;;;3.20;;
19257;SDS011;9763;48.780;9.212;2024-01-15T10:37:34;3.90;;;3.23;;
19257;SDS011;9763;48.780;9.212;2024-01-15T10:40:57;4.40;;;3.63;;
19257;SDS011;9763;48.780;9.212;2024-01-15T10:44:21;6.47;;;3.83;;
19257;SDS011;9763;48.780;9.212;2024-01-15T10:47:44;3.73;;;3.27;;
19257;SDS011;9763;48.780;9.212;2024-01-15T10:51:08;3.83;;;3.00;;
19257;SDS011;9763;48.780;9.212;2024-01-15T10:54:34;4.30;;;3.30;;
19257;SDS011;9763;48.780;9.212;2024-01-15T10:58:00;4.60;;;3.23;;
19257;SDS011;9763;48.780;9.212;2024-01-15T11:01:25;4.47;;;3.00;;
19257;SDS011;9763;48.780;9.212;2024-01-15T11:04:52;4.50;;;3.73;;
19257;SDS011;9763;48.780;9.212;2024-01-15T11:08:16;3.90;;;3.30;;
19257;SDS011;9763;48.780;9.212;2024-01-15T11:11:42;5.70;;;4.00;;
19257;SDS011;9763;48.780;9.212;2024-01-15T11:15:08;4.80;;;3.30;;
19257;SDS011;9763;48.780;9.212;2024-01-15T11:18:34;3.47;;;3.17;;
19257;SDS011;9763;48.780;9.212;2024-01-15T11:22:02;3.73;;;2.97;;
19257;SDS011;9763;48.780;9.212;2024-01-15T11:25:34;4.30;;;3.87;;
19257;SDS011;9763;48.780;9.212;2024-01-15T11:29:01;4.80;;;3.33;;
19257;SDS011;9763;48.780;9.212;2024-01-15T11:32:32;5.77;;;3.83;;
19257;SDS011;9763;48.780;9.212;2024-01-15T11:35:57;3.87;;;3.17;;
19257;SDS011;9763;48.780;9.212;2024-01-15T11:39:39;5.00;;;4.20;;
19257;SDS011;9763;48.780;9.212;2024-01-15T11:43:04;5.90;;;4.37;;
19257;SDS011;9763;48.780;9.212;2024-01-15T11:46:32;5.70;;;4.13;;
19257;SDS011;9763;48.780;9.212;2024-01-15T11:50:08;6.23;;;4.13;;
19257;SDS011;9763;48.780;9.212;2024-01-15T11:53:36;6.60;;;4.83;;
19257;SDS011;9763;48.780;9.212;2024-01-15T11:57:08;6.83;;;4.63;;
19257;SDS011;9763;48.780;9.212;2024-01-15T12:00:45;6.70;;;4.40;;
19257;SDS011;9763;48.780;9.212;2024-01-15T12:04:13;6.23;;;4.63;;
19257;SDS011;9763;48.780;9.212;2024-01-15T12:07:39;5.73;;;4.20;;
19257;SDS011;9763;48.780;9.212;2024-01-15T12:11:05;6.17;;;4.30;;
19257;SDS011;9763;48.780;9.212;2024-01-15T12:14:37;5.30;;;4.50;;
19257;SDS011;9763;48.780;9.212;2024-01-15T12:18:02;6.93;;;4.07;;
19257;SDS011;9763;48.780;9.212;2024-01-15T12:21:27;4.53;;;3.80;;
19257;SDS011;9763;48.780;9.212;2024-01-15T12:24:51;6.20;;;4.20;;
19257;SDS011;9763;48.780;9.212;2024-01-15T12:28:15;5.77;;;4.40;;
19257;SDS011;9763;48.780;9.212;2024-01-15T12:31:39;5.50;;;4.10;;
19257;SDS011;9763;48.780;9.212;2024-01-15T12:35:03;6.13;;;4.23;;
19257;SDS011;9763;48.780;9.212;2024-01-15T12:38:29;8.03;;;4.50;;
19257;SDS011;9763;48.780;9.212;2024-01-15T12:41:53;7.87;;;4.20;;
19257;SDS011;9763;48.780;9.212;2024-01-15T12:45:17;5.47;;;3.60;;
19257;SDS011;9763;48.780;9.212;2024-01-15T12:48:41;4.30;;;3.53;;
19257;SDS011;9763;48.780;9.212;2024-01-15T12:52:08;5.57;;;4.23;;
19257;SDS011;9763;48.780;9.212;2024-01-15T12:55:33;3.97;;;3.50;;
19257;SDS011;9763;48.780;9.212;2024-01-15T12:58:57;6.53;;;4.60;;
19257;SDS011;9763;48.780;9.212;2024-01-15T13:02:23;5.07;;;3.77;;
19257;SDS011;9763;48.780;9.212;2024-01-15T13:05:47;5.00;;;3.83;;
19257;SDS011;9763;48.780;9.212;2024-01-15T13:09:13;4.57;;;3.90;;
19257;SDS011;9763;48.780;9.212;2024-01-15T13:12:38;3.40;;;3.00;;
19257;SDS011;9763;48.780;9.212;2024-01-15T13:16:03;7.67;;;4.87;;
19257;SDS011;9763;48.780;9.212;2024-01-15T13:19:27;4.40;;;3.80;;
19257;SDS011;9763;48.780;9.212;2024-01-15T13:22:51;4.93;;;3.00;;
19257;SDS011;9763;48.780;9.212;2024-01-15T13:26:15;3.50;;;2.80;;
19257;SDS011;9763;48.780;9.212;2024-01-15T13:29:41;4.77;;;3.73;;
19257;SDS011;9763;48.780;9.212;2024-01-15T13:33:05;3.40;;;2.73;;
19257;SDS011;9763;48.780;9.212;2024-01-15T13:36:30;4.17;;;3.00;;
19257;SDS011;9763;48.780;9.212;2024-01-15T13:39:53;6.33;;;2.80;;
19257;SDS011;9763;48.780;9.212;2024-01-15T13:43:18;6.93;;;2.90;;
19257;SDS011;9763;48.780;9.212;2024-01-15T13:46:43;4.10;;;3.30;;
19257;SDS011;9763;48.780;9.212;2024-01-15T13:50:07;3.70;;;2.90;;
19257;SDS011;9763;48.780;9.212;2024-01-15T13:53:31;4.77;;;3.60;;
19257;SDS011;9763;48.780;9.212;2024-01-15T13:56:55;3.93;;;2.93;;
19257;SDS011;9763;48.780;9.212;2024-01-15T14:00:20;3.00;;;2.60;;
19257;SDS011;9763;48.780;9.212;2024-01-15T14:03:46;3.13;;;2.50;;
19257;SDS011;9763;48.780;9.212;2024-01-15T14:07:10;2.80;;;2.60;;
19257;SDS011;9763;48.780;9.212;2024-01-15T14:10:33;4.70;;;2.57;;
19257;SDS011;9763;48.780;9.212;2024-01-15T14:13:57;3.47;;;2.77;;
19257;SDS011;9763;48.780;9.212;2024-01-15T14:17:21;3.23;;;2.87;;
19257;SDS011;9763;48.780;9.212;2024-01-15T14:20:45;2.53;;;2.20;;
19257;SDS011;9763;48.780;9.212;2024-01-15T14:24:09;2.87;;;2.30;;
19257;SDS011;9763;48.780;9.212;2024-01-15T14:27:33;4.40;;;2.97;;
19257;SDS011;9763;48.780;9.212;2024-01-15T14:30:56;3.37;;;2.90;;
19257;SDS011;9763;48.780;9.212;2024-01-15T14:34:22;3.63;;;2.40;;
19257;SDS011;9763;48.780;9.212;2024-01-15T14:37:48;3.50;;;2.93;;
19257;SDS011;9763;48.780;9.212;2024-01-15T14:41:11;3.23;;;2.93;;
19257;SDS011;9763;48.780;9.212;2024-01-15T14:44:35;4.97;;;3.90;;
19257;SDS011;9763;48.780;9.212;2024-01-15T14:48:01;5.90;;;3.57;;
19257;SDS011;9763;48.780;9.212;2024-01-15T14:51:25;4.93;;;3.20;;
19257;SDS011;9763;48.780;9.212;2024-01-15T14:54:50;3.90;;;3.60;;
19257;SDS011;9763;48.780;9.212;2024-01-15T14:58:14;4.73;;;4.20;;
19257;SDS011;9763;48.780;9.212;2024-01-15T15:01:38;3.83;;;3.50;;
19257;SDS011;9763;48.780;9.212;2024-01-15T15:05:03;3.83;;;3.43;;
19257;SDS011;9763;48.780;9.212;2024-01-15T15:08:29;4.10;;;3.70;;
19257;SDS011;9763;48.780;9.212;2024-01-15T15:11:54;5.97;;;5.00;;
19257;SDS011;9763;48.780;9.212;2024-01-15T15:15:17;5.67;;;4.60;;
19257;SDS011;9763;48.780;9.212;2024-01-15T15:18:44;5.73;;;5.03;;
19257;SDS011;9763;48.780;9.212;2024-01-15T15:22:08;5.60;;;4.97;;
19257;SDS011;9763;48.780;9.212;2024-01-15T15:25:32;5.40;;;4.90;;
19257;SDS011;9763;48.780;9.212;2024-01-15T15:28:57;5.57;;;4.50;;
19257;SDS011;9763;48.780;9.212;2024-01-15T15:32:22;5.83;;;5.30;;
19257;SDS011;9763;48.780;9.212;2024-01-15T15:35:46;6.90;;;5.63;;
19257;SDS011;9763;48.780;9.212;2024-01-15T15:39:12;7.07;;;5.33;;
19257;SDS011;9763;48.780;9.212;2024-01-15T15:42:37;6.10;;;4.97;;
19257;SDS011;9763;48.780;9.212;2024-01-15T15:46:02;6.27;;;5.40;;
19257;SDS011;9763;48.780;9.212;2024-01-15T15:49:26;5.80;;;5.13;;
19257;SDS011;9763;48.780;9.212;2024-01-15T15:52:49;5.00;;;4.43;;
19257;SDS011;9763;48.780;9.212;2024-01-15T15:56:13;5.73;;;5.13;;
19257;SDS011;9763;48.780;9.212;2024-01-15T15:59:37;4.80;;;4.07;;
19257;SDS011;9763;48.780;9.212;2024-01-15T16:03:02;6.33;;;5.20;;
19257;SDS011;9763;48.780;9.212;2024-01-15T16:06:26;5.43;;;4.90;;
19257;SDS011;9763;48.780;9.212;2024-01-15T16:09:51;8.20;;;4.90;;
19257;SDS011;9763;48.780;9.212;2024-01-15T16:13:15;5.30;;;4.67;;
19257;SDS011;9763;48.780;9.212;2024-01-15T16:16:39;4.80;;;4.30;;
19257;SDS011;9763;48.780;9.212;2024-01-15T16:20:24;8.40;;;5.30;;
19257;SDS011;9763;48.780;9.212;2024-01-15T16:24:08;7.70;;;6.30;;
19257;SDS011;9763;48.780;9.212;2024-01-15T16:27:47;6.90;;;4.87;;
19257;SDS011;9763;48.780;9.212;2024-01-15T16:31:10;5.07;;;4.47;;
19257;SDS011;9763;48.780;9.212;2024-01-15T16:34:34;5.80;;;4.70;;
19257;SDS011;9763;48.780;9.212;2024-01-15T16:37:59;4.17;;;3.70;;
19257;SDS011;9763;48.780;9.212;2024-01-15T16:41:24;4.33;;;3.93;;
19257;SDS011;9763;48.780;9.212;2024-01-15T16:44:48;6.07;;;4.70;;
19257;SDS011;9763;48.780;9.212;2024-01-15T16:48:12;5.00;;;4.50;;
19257;SDS011;9763;48.780;9.212;2024-01-15T16:51:36;5.17;;;4.10;;
19257;SDS011;9763;48.780;9.212;2024-01-15T16:55:01;6.80;;;5.60;;
19257;SDS011;9763;48.780;9.212;2024-01-15T16:58:26;7.23;;;5.67;;
19257;SDS011;9763;48.780;9.212;2024-01-15T17:01:49;6.67;;;4.93;;
19257;SDS011;9763;48.780;9.212;2024-01-15T17:05:13;5.83;;;4.70;;
19257;SDS011;9763;48.780;9.212;2024-01-15T17:08:37;5.43;;;4.13;;
19257;SDS011;9763;48.780;9.212;2024-01-15T17:12:02;3.77;;;3.30;;
19257;SDS011;9763;48.780;9.212;2024-01-15T17:15:27;7.13;;;4.47;;
19257;SDS011;9763;48.780;9.212;2024-01-15T17:18:51;5.23;;;4.70;;
19257;SDS011;9763;48.780;9.212;2024-01-15T17:22:14;4.20;;;3.57;;
19257;SDS011;9763;48.780;9.212;2024-01-15T17:25:38;5.17;;;3.90;;
19257;SDS011;9763;48.780;9.212;2024-01-15T17:29:04;4.10;;;3.70;;
19257;SDS011;9763;48.780;9.212;2024-01-15T17:32:28;4.50;;;3.70;;
19257;SDS011;9763;48.780;9.212;2024-01-15T17:35:52;4.40;;;4.00;;
19257;SDS011;9763;48.780;9.212;2024-01-15T17:39:18;6.90;;;4.50;;
19257;SDS011;9763;48.780;9.212;2024-01-15T17:42:41;6.93;;;5.20;;
19257;SDS011;9763;48.780;9.212;2024-01-15T17:46:09;5.00;;;4.40;;
19257;SDS011;9763;48.780;9.212;2024-01-15T17:49:34;5.27;;;3.90;;
19257;SDS011;9763;48.780;9.212;2024-01-15T17:52:57;7.03;;;6.00;;
19257;SDS011;9763;48.780;9.212;2024-01-15T17:56:21;6.10;;;5.30;;
19257;SDS011;9763;48.780;9.212;2024-01-15T17:59:45;6.57;;;4.90;;
19257;SDS011;9763;48.780;9.212;2024-01-15T18:03:10;7.37;;;6.00;;
19257;SDS011;9763;48.780;9.212;2024-01-15T18:06:33;9.03;;;5.70;;
19257;SDS011;9763;48.780;9.212;2024-01-15T18:09:58;5.73;;;4.90;;
19257;SDS011;9763;48.780;9.212;2024-01-15T18:13:22;6.83;;;4.97;;
19257;SDS011;9763;48.780;9.212;2024-01-15T18:16:45;6.87;;;5.13;;
19257;SDS011;9763;48.780;9.212;2024-01-15T18:20:13;6.27;;;5.30;;
19257;SDS011;9763;48.780;9.212;2024-01-15T18:23:38;8.03;;;4.57;;
19257;SDS011;9763;48.780;9.212;2024-01-15T18:27:02;6.70;;;5.10;;
19257;SDS011;9763;48.780;9.212;2024-01-15T18:30:26;6.83;;;5.20;;
19257;SDS011;9763;48.780;9.212;2024-01-15T18:33:49;5.77;;;5.00;;
19257;SDS011;9763;48.780;9.212;2024-01-15T18:37:14;7.83;;;5.27;;
19257;SDS011;9763;48.780;9.212;2024-01-15T18:40:38;5.70;;;4.87;;
19257;SDS011;9763;48.780;9.212;2024-01-15T18:44:02;5.00;;;4.50;;
19257;SDS011;9763;48.780;9.212;2024-01-15T18:47:26;6.10;;;5.40;;
19257;SDS011;9763;48.780;9.212;2024-01-15T18:50:50;7.80;;;5.10;;
19257;SDS011;9763;48.780;9.212;2024-01-15T18:54:15;7.03;;;4.90;;
19257;SDS011;9763;48.780;9.212;2024-01-15T18:57:39;6.10;;;5.20;;
19257;SDS011;9763;48.780;9.212;2024-01-15T19:01:03;6.03;;;4.53;;
19257;SDS011;9763;48.780;9.212;2024-01-15T19:04:26;5.13;;;4.60;;
19257;SDS011;9763;48.780;9.212;2024-01-15T19:07:51;5.13;;;4.33;;
19257;SDS011;9763;48.780;9.212;2024-01-15T19:11:16;5.60;;;4.40;;
19257;SDS011;9763;48.780;9.212;2024-01-15T19:14:40;6.37;;;4.87;;
19257;SDS011;9763;48.780;9.212;2024-01-15T19:18:03;4.77;;;4.10;;
19257;SDS011;9763;48.780;9.212;2024-01-15T19:21:28;5.60;;;5.00;;
19257;SDS011;9763;48.780;9.212;2024-01-15T19:24:53;5.40;;;4.20;;
19257;SDS011;9763;48.780;9.212;2024-01-15T19:28:18;5.47;;;4.37;;
19257;SDS011;9763;48.780;9.212;2024-01-15T19:31:41;5.67;;;4.63;;
19257;SDS011;9763;48.780;9.212;2024-01-15T19:35:05;6.53;;;5.10;;
19257;SDS011;9763;48.780;9.212;2024-01-15T19:38:30;5.00;;;4.10;;
19257;SDS011;9763;48.780;9.212;2024-01-15T19:41:54;4.60;;;4.07;;
19257;SDS011;9763;48.780;9.212;2024-01-15T19:45:19;6.97;;;4.07;;
19257;SDS011;9763;48.780;9.212;2024-01-15T19:48:44;5.07;;;4.20;;
19257;SDS011;9763;48.780;9.212;2024-01-15T19:52:08;5.07;;;4.20;;
19257;SDS011;9763;48.780;9.212;2024-01-15T19:55:31;3.97;;;3.57;;
19257;SDS011;9763;48.780;9.212;2024-01-15T19:58:55;4.20;;;3.77;;
19257;SDS011;9763;48.780;9.212;2024-01-15T20:02:20;5.20;;;3.97;;
19257;SDS011;9763;48.780;9.212;2024-01-15T20:05:44;5.90;;;3.50;;
19257;SDS011;9763;48.780;9.212;2024-01-15T20:09:08;6.33;;;3.33;;
19257;SDS011;9763;48.780;9.212;2024-01-15T20:12:32;4.63;;;3.90;;
19257;SDS011;9763;48.780;9.212;2024-01-15T20:15:55;3.87;;;3.30;;
19257;SDS011;9763;48.780;9.212;2024-01-15T20:19:20;5.00;;;4.13;;
19257;SDS011;9763;48.780;9.212;2024-01-15T20:22:44;4.63;;;3.47;;
19257;SDS011;9763;48.780;9.212;2024-01-15T20:26:08;4.70;;;3.83;;
19257;SDS011;9763;48.780;9.212;2024-01-15T20:29:31;5.63;;;3.03;;
19257;SDS011;9763;48.780;9.212;2024-01-15T20:32:55;3.60;;;3.30;;
19257;SDS011;9763;48.780;9.212;2024-01-15T20:36:20;4.40;;;3.27;;
19257;SDS011;9763;48.780;9.212;2024-01-15T20:39:44;4.20;;;3.10;;
19257;SDS011;9763;48.780;9.212;2024-01-15T20:43:07;4.13;;;3.60;;
19257;SDS011;9763;48.780;9.212;2024-01-15T20:46:31;3.37;;;3.07;;